createdAt,value
2022-12-17T00:02:32.574Z,-5.65
2022-12-17T00:05:20.542Z,-5.65
2022-12-17T00:08:15.418Z,-5.65
2022-12-17T00:11:03.582Z,-5.66
2022-12-17T00:13:52.032Z,-5.71
2022-12-17T00:16:41.026Z,-5.71
2022-12-17T00:19:28.526Z,-5.72
2022-12-17T00:22:16.793Z,-5.79
2022-12-17T00:25:04.982Z,-5.84
2022-12-17T00:27:53.392Z,-5.84
2022-12-17T00:30:42.043Z,-5.82
2022-12-17T00:33:32.983Z,-5.84
2022-12-17T00:36:21.532Z,-5.87
2022-12-17T00:39:09.534Z,-5.93
2022-12-17T00:41:59.590Z,-5.97
2022-12-17T00:44:47.625Z,-5.98
2022-12-17T00:47:36.264Z,-5.99
2022-12-17T00:50:25.211Z,-5.99
2022-12-17T00:53:14.714Z,-6.01
2022-12-17T00:56:02.612Z,-6.01
2022-12-17T00:58:50.660Z,-6.02
2022-12-17T05:00:28.878Z,-6.28
2022-12-17T05:03:24.348Z,-6.23
2022-12-17T05:06:11.778Z,-6.15
2022-12-17T05:08:59.523Z,-6.12
2022-12-17T05:11:48.045Z,-6.16
2022-12-17T05:14:37.346Z,-6.23
2022-12-17T05:17:26.146Z,-6.30
2022-12-17T05:20:14.597Z,-6.36
2022-12-17T05:23:02.069Z,-6.36
2022-12-17T05:25:50.531Z,-6.32
2022-12-17T05:28:38.625Z,-6.25
2022-12-17T05:31:27.049Z,-6.25
2022-12-17T05:34:15.162Z,-6.28
2022-12-17T05:37:03.395Z,-6.34
2022-12-17T05:39:51.776Z,-6.40
2022-12-17T05:42:39.987Z,-6.45
2022-12-17T05:45:29.173Z,-6.50
2022-12-17T05:48:18.437Z,-6.47
2022-12-17T05:51:10.608Z,-6.48
2022-12-17T05:53:58.915Z,-6.50
2022-12-17T05:56:47.222Z,-6.50
2022-12-17T05:59:34.970Z,-6.50
2022-12-17T06:02:22.617Z,-6.48
2022-12-17T06:05:10.144Z,-6.49
2022-12-17T06:07:58.800Z,-6.51
2022-12-17T06:10:58.148Z,-6.56
2022-12-17T06:13:46.243Z,-6.62
2022-12-17T06:16:33.806Z,-6.66
2022-12-17T06:19:21.544Z,-6.61
2022-12-17T06:22:09.950Z,-6.55
2022-12-17T06:24:58.357Z,-6.56
2022-12-17T06:27:46.457Z,-6.60
2022-12-17T06:30:35.170Z,-6.62
2022-12-17T06:33:28.976Z,-6.63
2022-12-17T06:36:21.995Z,-6.63
2022-12-17T06:39:12.128Z,-6.65
2022-12-17T06:42:04.159Z,-6.65
2022-12-17T06:44:53.838Z,-6.64
2022-12-17T06:47:41.558Z,-6.59
2022-12-17T06:50:29.718Z,-6.55
2022-12-17T06:53:23.568Z,-6.49
2022-12-17T06:56:12.238Z,-6.45
2022-12-17T06:59:00.015Z,-6.43
2022-12-17T07:01:48.498Z,-6.44
2022-12-17T07:04:35.930Z,-6.50
2022-12-17T07:07:23.678Z,-6.52
2022-12-17T07:10:14.331Z,-6.54
2022-12-17T07:13:03.041Z,-6.61
2022-12-17T07:15:51.058Z,-6.62
2022-12-17T07:18:39.278Z,-6.67
2022-12-17T07:21:28.011Z,-6.70
2022-12-17T07:24:16.536Z,-6.69
2022-12-17T07:27:03.873Z,-6.68
2022-12-17T07:29:51.977Z,-6.69
2022-12-17T07:32:40.141Z,-6.69
2022-12-17T07:35:28.120Z,-6.71
2022-12-17T07:38:20.539Z,-6.74
2022-12-17T07:41:08.145Z,-6.74
2022-12-17T07:43:55.942Z,-6.79
2022-12-17T07:46:42.816Z,-6.80
2022-12-17T07:49:29.596Z,-6.83
2022-12-17T07:52:19.936Z,-6.82
2022-12-17T07:55:06.766Z,-6.81
2022-12-17T07:57:54.514Z,-6.82
2022-12-17T08:00:48.992Z,-6.84
2022-12-17T08:03:37.508Z,-6.87
2022-12-17T08:06:25.791Z,-6.88
2022-12-17T08:09:13.453Z,-6.87
2022-12-17T08:12:01.000Z,-6.86
2022-12-17T08:14:48.762Z,-6.84
2022-12-17T08:17:36.644Z,-6.84
2022-12-17T08:20:25.472Z,-6.85
2022-12-17T08:23:20.249Z,-6.86
2022-12-17T08:26:08.605Z,-6.86
2022-12-17T08:28:55.777Z,-6.88
2022-12-17T08:31:44.429Z,-6.87
2022-12-17T08:34:34.177Z,-6.91
2022-12-17T08:37:23.289Z,-6.90
2022-12-17T08:40:12.408Z,-6.88
2022-12-17T08:42:59.909Z,-6.89
2022-12-17T08:45:48.633Z,-6.89
2022-12-17T08:48:37.748Z,-6.89
2022-12-17T08:51:26.653Z,-6.89
2022-12-17T08:54:14.451Z,-6.84
2022-12-17T08:57:04.116Z,-6.80
2022-12-17T08:59:52.109Z,-6.78
2022-12-17T09:02:39.587Z,-6.72
2022-12-17T09:05:27.469Z,-6.70
2022-12-17T09:08:23.528Z,-6.75
2022-12-17T09:11:11.818Z,-6.78
2022-12-17T09:13:59.155Z,-6.78
2022-12-17T09:16:46.816Z,-6.73
2022-12-17T09:19:34.127Z,-6.69
2022-12-17T09:22:21.367Z,-6.68
2022-12-17T09:25:08.123Z,-6.65
2022-12-17T09:27:55.241Z,-6.60
2022-12-17T09:30:42.241Z,-6.59
2022-12-17T09:33:36.333Z,-6.64
2022-12-17T09:36:25.813Z,-6.64
2022-12-17T09:39:13.670Z,-6.60
2022-12-17T09:42:12.306Z,-6.60
2022-12-17T09:45:18.170Z,-6.62
2022-12-17T09:48:21.854Z,-6.62
2022-12-17T09:51:10.674Z,-6.66
2022-12-17T09:54:10.346Z,-6.66
2022-12-17T09:57:01.549Z,-6.70
2022-12-17T09:59:53.327Z,-6.65
2022-12-17T10:02:45.123Z,-6.59
2022-12-17T10:05:42.805Z,-6.51
2022-12-17T10:08:40.118Z,-6.45
2022-12-17T10:11:43.499Z,-6.40
2022-12-17T10:14:38.967Z,-6.34
2022-12-17T10:17:40.182Z,-6.30
2022-12-17T10:20:41.306Z,-6.29
2022-12-17T10:23:28.123Z,-6.25
2022-12-17T10:26:16.640Z,-6.21
2022-12-17T10:29:04.384Z,-6.16
2022-12-17T10:31:52.586Z,-6.14
2022-12-17T10:34:40.313Z,-6.06
2022-12-17T10:37:38.131Z,-5.99
2022-12-17T10:40:39.161Z,-5.92
2022-12-17T10:43:43.720Z,-5.89
2022-12-17T10:46:31.670Z,-5.82
2022-12-17T10:49:24.462Z,-5.84
2022-12-17T10:52:18.615Z,-5.87
2022-12-17T10:55:17.023Z,-5.89
2022-12-17T10:58:07.210Z,-5.92
2022-12-17T11:00:59.459Z,-5.93
2022-12-17T11:03:55.777Z,-5.97
2022-12-17T11:06:49.818Z,-5.96
2022-12-17T11:09:49.429Z,-5.92
2022-12-17T11:12:41.260Z,-5.88
2022-12-17T11:15:40.168Z,-5.85
2022-12-17T11:18:37.718Z,-5.78
2022-12-17T11:21:45.197Z,-5.71
2022-12-17T11:24:40.089Z,-5.65
2022-12-17T11:27:29.562Z,-5.64
2022-12-17T11:30:17.004Z,-5.60
2022-12-17T11:33:32.477Z,-5.56
2022-12-17T11:36:53.451Z,-5.48
2022-12-17T11:40:16.850Z,-5.41
2022-12-17T11:43:41.315Z,-5.37
2022-12-17T11:46:35.765Z,-5.33
2022-12-17T11:49:42.398Z,-5.29
2022-12-17T11:53:01.641Z,-5.21
2022-12-17T11:56:09.973Z,-5.15
2022-12-17T11:59:17.944Z,-5.09
2022-12-17T12:02:19.377Z,-5.03
2022-12-17T12:05:37.114Z,-4.99
2022-12-17T12:08:38.317Z,-4.99
2022-12-17T12:11:36.500Z,-5.03
2022-12-17T12:14:42.742Z,-5.05
2022-12-17T12:17:50.457Z,-5.03
2022-12-17T12:21:02.663Z,-4.96
2022-12-17T12:24:05.271Z,-4.91
2022-12-17T12:27:03.441Z,-4.88
2022-12-17T12:30:00.881Z,-4.87
2022-12-17T12:32:51.542Z,-4.82
2022-12-17T12:35:43.639Z,-4.77
2022-12-17T12:38:47.779Z,-4.77
2022-12-17T12:42:02.365Z,-4.77
2022-12-17T12:45:24.443Z,-4.75
2022-12-17T12:48:22.700Z,-4.74
2022-12-17T12:51:23.347Z,-4.67
2022-12-17T12:54:21.777Z,-4.59
2022-12-17T12:57:09.103Z,-4.55
2022-12-17T12:59:56.931Z,-4.48
2022-12-17T13:02:49.280Z,-4.44
2022-12-17T13:05:34.520Z,-4.40
2022-12-17T13:08:08.531Z,-4.35
2022-12-17T13:10:38.445Z,-4.29
2022-12-17T13:13:18.516Z,-4.23
2022-12-17T13:16:15.460Z,-4.19
2022-12-17T13:18:43.502Z,-4.15
2022-12-17T13:21:17.535Z,-4.10
2022-12-17T13:23:45.656Z,-4.04
2022-12-17T13:26:18.442Z,-3.97
2022-12-17T13:29:20.364Z,-3.90
2022-12-17T13:32:40.259Z,-3.81
2022-12-17T13:35:43.771Z,-3.73
2022-12-17T13:38:33.554Z,-3.66
2022-12-17T13:41:17.168Z,-3.66
2022-12-17T13:44:02.034Z,-3.66
2022-12-17T13:46:46.716Z,-3.63
2022-12-17T13:49:28.471Z,-3.60
2022-12-17T13:52:18.351Z,-3.58
2022-12-17T13:54:47.910Z,-3.53
2022-12-17T13:57:19.741Z,-3.48
2022-12-17T13:59:52.530Z,-3.43
2022-12-17T14:02:36.922Z,-3.42
2022-12-17T14:05:43.053Z,-3.40
2022-12-17T14:08:19.813Z,-3.36
2022-12-17T14:10:53.331Z,-3.33
2022-12-17T14:13:22.069Z,-3.31
2022-12-17T14:15:53.031Z,-3.30
2022-12-17T14:18:22.887Z,-3.29
2022-12-17T14:20:56.009Z,-3.29
2022-12-17T14:23:31.026Z,-3.30
2022-12-17T14:26:00.097Z,-3.30
2022-12-17T14:28:37.804Z,-3.28
2022-12-17T14:31:28.568Z,-3.24
2022-12-17T14:34:11.793Z,-3.24
2022-12-17T14:36:44.464Z,-3.23
2022-12-17T14:39:20.012Z,-3.22
2022-12-17T14:42:07.515Z,-3.23
2022-12-17T14:44:38.537Z,-3.26
2022-12-17T14:47:27.016Z,-3.31
2022-12-17T14:50:00.595Z,-3.39
2022-12-17T14:52:37.683Z,-3.42
2022-12-17T14:55:25.406Z,-3.46
2022-12-17T14:58:07.974Z,-3.50
2022-12-17T15:00:44.150Z,-3.52
2022-12-17T15:03:17.456Z,-3.53
2022-12-17T15:05:55.698Z,-3.51
2022-12-17T15:08:24.606Z,-3.51
2022-12-17T15:10:56.556Z,-3.50
2022-12-17T15:13:25.064Z,-3.51
2022-12-17T15:15:53.993Z,-3.52
2022-12-17T15:18:23.010Z,-3.53
2022-12-17T15:20:51.203Z,-3.53
2022-12-17T15:23:23.182Z,-3.50
2022-12-17T15:25:53.581Z,-3.47
2022-12-17T15:28:23.033Z,-3.46
2022-12-17T15:30:51.311Z,-3.45
2022-12-17T15:33:19.783Z,-3.46
2022-12-17T15:35:48.799Z,-3.46
2022-12-17T15:38:17.196Z,-3.44
2022-12-17T15:40:45.277Z,-3.44
2022-12-17T15:43:13.862Z,-3.43
2022-12-17T15:45:50.618Z,-3.42
2022-12-17T15:48:21.579Z,-3.41
2022-12-17T15:50:49.934Z,-3.40
2022-12-17T15:53:18.992Z,-3.38
2022-12-17T15:55:47.257Z,-3.37
2022-12-17T15:58:16.502Z,-3.36
2022-12-17T16:00:44.675Z,-3.34
2022-12-17T16:03:13.047Z,-3.32
2022-12-17T16:05:41.471Z,-3.34
2022-12-17T16:08:09.698Z,-3.39
2022-12-17T16:10:38.520Z,-3.42
2022-12-17T16:13:07.480Z,-3.44
2022-12-17T16:15:35.854Z,-3.46
2022-12-17T16:18:04.213Z,-3.47
2022-12-17T16:20:32.730Z,-3.47
2022-12-17T16:23:01.391Z,-3.46
2022-12-17T16:25:30.387Z,-3.46
2022-12-17T16:27:59.438Z,-3.42
2022-12-17T16:30:28.458Z,-3.38
2022-12-17T16:32:59.231Z,-3.30
2022-12-17T16:35:30.697Z,-3.26
2022-12-17T16:37:58.836Z,-3.22
2022-12-17T16:40:29.452Z,-3.17
2022-12-17T16:42:57.608Z,-3.13
2022-12-17T16:45:25.720Z,-3.12
2022-12-17T16:47:53.945Z,-3.11
2022-12-17T16:50:22.889Z,-3.11
2022-12-17T16:52:51.981Z,-3.10
2022-12-17T16:55:21.058Z,-3.10
2022-12-17T16:57:49.384Z,-3.05
2022-12-17T17:00:17.808Z,-2.99
2022-12-17T17:02:53.011Z,-2.95
2022-12-17T17:05:22.018Z,-2.90
2022-12-17T17:07:51.120Z,-2.87
2022-12-17T17:10:20.058Z,-2.86
2022-12-17T17:12:51.886Z,-2.82
2022-12-17T17:15:23.966Z,-2.82
2022-12-17T17:17:53.864Z,-2.85
2022-12-17T17:20:25.250Z,-2.85
2022-12-17T17:22:57.056Z,-2.81
2022-12-17T17:25:38.531Z,-2.76
2022-12-17T17:28:13.780Z,-2.75
2022-12-17T17:30:42.964Z,-2.75
2022-12-17T17:33:12.260Z,-2.76
2022-12-17T17:35:41.097Z,-2.75
2022-12-17T17:38:10.227Z,-2.74
2022-12-17T17:40:39.566Z,-2.73
2022-12-17T17:43:08.472Z,-2.73
2022-12-17T17:45:41.033Z,-2.74
2022-12-17T17:48:10.413Z,-2.74
2022-12-17T17:50:41.860Z,-2.75
2022-12-17T17:53:10.832Z,-2.73
2022-12-17T17:55:39.632Z,-2.71
2022-12-17T17:58:11.567Z,-2.69
2022-12-17T18:00:40.674Z,-2.67
2022-12-17T18:03:09.760Z,-2.66
2022-12-17T18:05:45.138Z,-2.66
2022-12-17T18:08:14.272Z,-2.62
2022-12-17T18:10:44.253Z,-2.62
2022-12-17T18:13:31.920Z,-2.62
2022-12-17T18:16:02.074Z,-2.60
2022-12-17T18:18:30.612Z,-2.57
2022-12-17T18:21:04.752Z,-2.54
2022-12-17T18:23:36.082Z,-2.50
2022-12-17T18:26:12.996Z,-2.46
2022-12-17T18:28:45.187Z,-2.46
2022-12-17T18:31:22.680Z,-2.48
2022-12-17T18:33:55.804Z,-2.49
2022-12-17T18:36:30.772Z,-2.48
2022-12-17T18:39:02.605Z,-2.43
2022-12-17T18:41:51.247Z,-2.38
2022-12-17T18:44:21.154Z,-2.37
2022-12-17T18:46:50.619Z,-2.39
2022-12-17T18:49:21.933Z,-2.41
2022-12-17T18:51:53.179Z,-2.41
2022-12-17T18:54:28.264Z,-2.40
2022-12-17T18:57:02.139Z,-2.39
2022-12-17T18:59:32.111Z,-2.36
2022-12-17T19:02:00.894Z,-2.32
2022-12-17T19:04:29.061Z,-2.28
2022-12-17T19:06:57.071Z,-2.25
2022-12-17T19:09:29.511Z,-2.21
2022-12-17T19:11:59.075Z,-2.19
2022-12-17T19:14:28.448Z,-2.18
2022-12-17T19:16:58.523Z,-2.16
2022-12-17T19:19:27.907Z,-2.18
2022-12-17T19:22:00.379Z,-2.20
2022-12-17T19:24:29.972Z,-2.23
2022-12-17T19:26:59.740Z,-2.26
2022-12-17T19:29:29.010Z,-2.27
2022-12-17T19:32:00.944Z,-2.28
2022-12-17T19:34:30.164Z,-2.32
2022-12-17T19:36:59.210Z,-2.35
2022-12-17T19:39:27.713Z,-2.34
2022-12-17T19:41:56.077Z,-2.35
2022-12-17T19:44:25.546Z,-2.36
2022-12-17T19:46:54.784Z,-2.38
2022-12-17T19:49:23.582Z,-2.36
2022-12-17T19:51:51.884Z,-2.36
2022-12-17T19:54:20.269Z,-2.33
2022-12-17T19:56:49.487Z,-2.32
2022-12-17T19:59:17.931Z,-2.31
2022-12-17T20:01:49.886Z,-2.28
2022-12-17T20:04:19.347Z,-2.26
2022-12-17T20:06:48.071Z,-2.22
2022-12-17T20:09:17.645Z,-2.20
2022-12-17T20:11:46.218Z,-2.16
2022-12-17T20:14:17.935Z,-2.13
2022-12-17T20:16:52.538Z,-2.10
2022-12-17T20:19:26.632Z,-2.09
2022-12-17T20:21:55.677Z,-2.06
2022-12-17T20:24:30.815Z,-2.06
2022-12-17T20:27:01.247Z,-2.07
2022-12-17T20:29:30.160Z,-2.10
2022-12-17T20:31:58.806Z,-2.09
2022-12-17T20:34:28.287Z,-2.08
2022-12-17T20:36:57.139Z,-2.07
2022-12-17T20:39:28.188Z,-2.08
2022-12-17T20:41:57.557Z,-2.10
2022-12-17T20:44:26.675Z,-2.11
2022-12-17T20:46:55.428Z,-2.11
2022-12-17T20:49:23.517Z,-2.12
2022-12-17T20:51:52.660Z,-2.10
2022-12-17T20:54:22.062Z,-2.07
2022-12-17T20:56:50.582Z,-2.06
2022-12-17T20:59:20.043Z,-2.04
2022-12-17T21:01:52.999Z,-2.01
2022-12-17T21:04:24.521Z,-1.98
2022-12-17T21:06:53.211Z,-1.94
2022-12-17T21:09:22.802Z,-1.91
2022-12-17T21:11:51.577Z,-1.89
2022-12-17T21:14:21.290Z,-1.88
2022-12-17T21:16:49.502Z,-1.89
2022-12-17T21:19:20.278Z,-1.89
2022-12-17T21:21:49.089Z,-1.88
2022-12-17T21:24:17.488Z,-1.88
2022-12-17T21:26:47.452Z,-1.89
2022-12-17T21:29:19.963Z,-1.89
2022-12-17T21:31:51.706Z,-1.93
2022-12-17T21:34:22.547Z,-1.94
2022-12-17T21:36:52.753Z,-1.96
2022-12-17T21:39:22.467Z,-1.93
2022-12-17T21:42:14.299Z,-1.91
2022-12-17T21:44:42.665Z,-1.89
2022-12-17T21:47:14.206Z,-1.87
2022-12-17T21:49:44.462Z,-1.86
2022-12-17T21:52:13.750Z,-1.86
2022-12-17T21:54:42.239Z,-1.89
2022-12-17T21:57:12.319Z,-1.92
2022-12-17T21:59:41.938Z,-1.93
2022-12-17T22:02:11.458Z,-1.98
2022-12-17T22:04:40.908Z,-1.97
2022-12-17T22:07:12.784Z,-1.94
2022-12-17T22:10:30.447Z,-1.91
2022-12-17T22:12:57.015Z,-1.91
2022-12-17T22:15:28.112Z,-1.98
2022-12-17T22:18:01.190Z,-2.01
2022-12-17T22:20:30.626Z,-2.01
2022-12-17T22:22:59.528Z,-2.02
2022-12-17T22:25:28.851Z,-2.05
2022-12-17T22:27:57.579Z,-2.07
2022-12-17T22:30:44.976Z,-2.07
2022-12-17T22:33:33.729Z,-2.05
2022-12-17T22:38:32.784Z,-2.01
2022-12-17T22:41:05.141Z,-1.98
2022-12-17T22:44:37.549Z,-1.93
2022-12-17T22:44:54.567Z,-1.90
2022-12-17T22:47:26.625Z,-1.87
2022-12-17T22:49:55.667Z,-1.84
2022-12-17T22:52:25.338Z,-1.84
2022-12-17T22:54:55.157Z,-1.84
2022-12-17T22:57:36.431Z,-1.83
2022-12-17T23:00:14.408Z,-1.84
2022-12-17T23:02:43.247Z,-1.83
2022-12-17T23:05:12.245Z,-1.81
2022-12-17T23:07:41.560Z,-1.81
2022-12-17T23:10:09.940Z,-1.80
2022-12-17T23:12:57.188Z,-1.81
2022-12-17T23:15:31.315Z,-1.83
2022-12-17T23:18:02.235Z,-1.83
2022-12-17T23:20:33.210Z,-1.85
2022-12-17T23:23:03.299Z,-1.89
2022-12-17T23:25:32.701Z,-1.90
2022-12-17T23:28:01.843Z,-1.89
2022-12-17T23:30:30.886Z,-1.88
2022-12-17T23:32:59.974Z,-1.85
2022-12-17T23:35:28.881Z,-1.83
2022-12-17T23:37:58.269Z,-1.83
2022-12-17T23:40:27.165Z,-1.84
2022-12-17T23:42:57.747Z,-1.89
2022-12-17T23:45:26.472Z,-1.92
2022-12-17T23:47:57.721Z,-1.92
2022-12-17T23:50:26.633Z,-1.92
2022-12-17T23:52:54.710Z,-1.95
2022-12-17T23:55:23.836Z,-1.98
2022-12-17T23:57:57.369Z,-1.98
